sensor_id;sensor_type;location;lat;lon;timestamp;P1;durP1;ratioP1;P2;durP2;ratioP2
41952;SDS011;47381;28.206;112.926;2022-07-23T00:01:28;4.88;;;4.10;;
41952;SDS011;47381;28.206;112.926;2022-07-23T00:03:58;5.22;;;4.15;;
41952;SDS011;47381;28.206;112.926;2022-07-23T00:06:28;5.00;;;4.60;;
41952;SDS011;47381;28.206;112.926;2022-07-23T00:08:56;4.78;;;4.30;;
41952;SDS011;47381;28.206;112.926;2022-07-23T00:11:23;5.38;;;4.68;;
41952;SDS011;47381;28.206;112.926;2022-07-23T00:13:50;5.55;;;4.80;;
41952;SDS011;47381;28.206;112.926;2022-07-23T00:16:18;5.00;;;4.07;;
41952;SDS011;47381;28.206;112.926;2022-07-23T00:18:48;5.55;;;4.95;;
41952;SDS011;47381;28.206;112.926;2022-07-23T00:21:15;5.32;;;4.70;;
41952;SDS011;47381;28.206;112.926;2022-07-23T00:23:42;5.57;;;4.93;;
41952;SDS011;47381;28.206;112.926;2022-07-23T00:26:10;6.10;;;5.00;;
41952;SDS011;47381;28.206;112.926;2022-07-23T00:28:37;5.47;;;4.97;;
41952;SDS011;47381;28.206;112.926;2022-07-23T00:31:04;5.25;;;4.78;;
41952;SDS011;47381;28.206;112.926;2022-07-23T00:33:31;5.47;;;4.97;;
41952;SDS011;47381;28.206;112.926;2022-07-23T00:35:58;6.32;;;4.78;;
41952;SDS011;47381;28.206;112.926;2022-07-23T00:38:45;6.93;;;5.18;;
41952;SDS011;47381;28.206;112.926;2022-07-23T00:41:12;6.18;;;4.93;;
41952;SDS011;47381;28.206;112.926;2022-07-23T00:43:40;4.90;;;4.40;;
41952;SDS011;47381;28.206;112.926;2022-07-23T00:46:08;5.68;;;4.70;;
41952;SDS011;47381;28.206;112.926;2022-07-23T00:48:55;6.03;;;4.70;;
41952;SDS011;47381;28.206;112.926;2022-07-23T00:51:22;5.95;;;5.20;;
41952;SDS011;47381;28.206;112.926;2022-07-23T00:53:49;5.10;;;4.60;;
41952;SDS011;47381;28.206;112.926;2022-07-23T00:56:16;5.38;;;4.80;;
41952;SDS011;47381;28.206;112.926;2022-07-23T00:58:46;5.82;;;5.00;;
41952;SDS011;47381;28.206;112.926;2022-07-23T01:01:13;5.97;;;5.38;;
41952;SDS011;47381;28.206;112.926;2022-07-23T01:03:40;6.68;;;5.75;;
41952;SDS011;47381;28.206;112.926;2022-07-23T01:06:07;5.50;;;4.93;;
41952;SDS011;47381;28.206;112.926;2022-07-23T01:08:35;6.95;;;5.53;;
41952;SDS011;47381;28.206;112.926;2022-07-23T01:11:03;5.63;;;5.13;;
41952;SDS011;47381;28.206;112.926;2022-07-23T01:13:30;6.72;;;5.30;;
41952;SDS011;47381;28.206;112.926;2022-07-23T01:15:57;5.95;;;5.47;;
41952;SDS011;47381;28.206;112.926;2022-07-23T01:18:45;5.82;;;5.32;;
41952;SDS011;47381;28.206;112.926;2022-07-23T01:21:12;5.80;;;5.07;;
41952;SDS011;47381;28.206;112.926;2022-07-23T01:23:40;5.70;;;5.00;;
41952;SDS011;47381;28.206;112.926;2022-07-23T01:26:07;5.53;;;4.80;;
41952;SDS011;47381;28.206;112.926;2022-07-23T01:28:34;6.18;;;5.57;;
41952;SDS011;47381;28.206;112.926;2022-07-23T01:31:04;7.07;;;5.65;;
41952;SDS011;47381;28.206;112.926;2022-07-23T01:33:31;6.82;;;6.15;;
41952;SDS011;47381;28.206;112.926;2022-07-23T01:35:58;7.22;;;6.63;;
41952;SDS011;47381;28.206;112.926;2022-07-23T01:38:28;6.80;;;6.20;;
41952;SDS011;47381;28.206;112.926;2022-07-23T01:41:15;8.18;;;5.88;;
41952;SDS011;47381;28.206;112.926;2022-07-23T01:43:43;7.70;;;6.25;;
41952;SDS011;47381;28.206;112.926;2022-07-23T01:46:10;6.40;;;5.80;;
41952;SDS011;47381;28.206;112.926;2022-07-23T01:48:38;6.68;;;5.47;;
41952;SDS011;47381;28.206;112.926;2022-07-23T01:51:06;6.80;;;6.20;;
41952;SDS011;47381;28.206;112.926;2022-07-23T01:53:33;6.38;;;5.78;;
41952;SDS011;47381;28.206;112.926;2022-07-23T01:56:00;8.45;;;6.40;;
41952;SDS011;47381;28.206;112.926;2022-07-23T01:58:28;6.80;;;6.20;;
41952;SDS011;47381;28.206;112.926;2022-07-23T02:00:56;6.72;;;6.00;;
41952;SDS011;47381;28.206;112.926;2022-07-23T02:03:23;6.60;;;6.00;;
41952;SDS011;47381;28.206;112.926;2022-07-23T02:05:50;7.28;;;6.53;;
41952;SDS011;47381;28.206;112.926;2022-07-23T02:08:18;6.13;;;5.53;;
41952;SDS011;47381;28.206;112.926;2022-07-23T02:10:45;6.15;;;5.55;;
41952;SDS011;47381;28.206;112.926;2022-07-23T02:13:14;6.40;;;5.80;;
41952;SDS011;47381;28.206;112.926;2022-07-23T02:15:41;7.25;;;5.75;;
41952;SDS011;47381;28.206;112.926;2022-07-23T02:18:08;7.38;;;6.65;;
41952;SDS011;47381;28.206;112.926;2022-07-23T02:20:38;6.47;;;5.97;;
41952;SDS011;47381;28.206;112.926;2022-07-23T02:23:25;7.10;;;6.43;;
41952;SDS011;47381;28.206;112.926;2022-07-23T02:25:52;7.63;;;6.38;;
41952;SDS011;47381;28.206;112.926;2022-07-23T02:28:19;6.40;;;5.80;;
41952;SDS011;47381;28.206;112.926;2022-07-23T02:30:47;6.85;;;6.18;;
41952;SDS011;47381;28.206;112.926;2022-07-23T02:33:14;6.07;;;5.50;;
41952;SDS011;47381;28.206;112.926;2022-07-23T02:35:41;6.28;;;5.78;;
41952;SDS011;47381;28.206;112.926;2022-07-23T02:38:08;6.78;;;6.18;;
41952;SDS011;47381;28.206;112.926;2022-07-23T02:40:38;7.20;;;6.50;;
41952;SDS011;47381;28.206;112.926;2022-07-23T02:43:08;7.20;;;6.60;;
41952;SDS011;47381;28.206;112.926;2022-07-23T02:45:35;8.45;;;5.97;;
41952;SDS011;47381;28.206;112.926;2022-07-23T02:48:02;6.80;;;6.00;;
41952;SDS011;47381;28.206;112.926;2022-07-23T02:50:29;6.95;;;6.25;;
41952;SDS011;47381;28.206;112.926;2022-07-23T02:52:57;7.88;;;6.47;;
41952;SDS011;47381;28.206;112.926;2022-07-23T02:55:24;8.10;;;6.78;;
41952;SDS011;47381;28.206;112.926;2022-07-23T02:57:51;6.35;;;5.75;;
41952;SDS011;47381;28.206;112.926;2022-07-23T03:00:18;7.28;;;6.57;;
41952;SDS011;47381;28.206;112.926;2022-07-23T03:02:46;7.55;;;6.85;;
41952;SDS011;47381;28.206;112.926;2022-07-23T03:05:13;7.40;;;6.70;;
41952;SDS011;47381;28.206;112.926;2022-07-23T03:07:41;7.10;;;6.50;;
41952;SDS011;47381;28.206;112.926;2022-07-23T03:10:08;8.32;;;6.80;;
41952;SDS011;47381;28.206;112.926;2022-07-23T03:12:55;7.22;;;6.53;;
41952;SDS011;47381;28.206;112.926;2022-07-23T03:15:22;7.43;;;6.72;;
41952;SDS011;47381;28.206;112.926;2022-07-23T03:17:54;8.02;;;7.18;;
41952;SDS011;47381;28.206;112.926;2022-07-23T03:20:21;9.70;;;7.43;;
41952;SDS011;47381;28.206;112.926;2022-07-23T03:22:50;9.23;;;7.53;;
41952;SDS011;47381;28.206;112.926;2022-07-23T03:25:19;8.57;;;7.18;;
41952;SDS011;47381;28.206;112.926;2022-07-23T03:27:47;8.02;;;6.82;;
41952;SDS011;47381;28.206;112.926;2022-07-23T03:30:14;8.40;;;7.28;;
41952;SDS011;47381;28.206;112.926;2022-07-23T03:32:41;8.27;;;7.47;;
41952;SDS011;47381;28.206;112.926;2022-07-23T03:35:10;8.70;;;7.32;;
41952;SDS011;47381;28.206;112.926;2022-07-23T03:37:37;7.80;;;7.00;;
41952;SDS011;47381;28.206;112.926;2022-07-23T03:40:05;8.70;;;7.38;;
41952;SDS011;47381;28.206;112.926;2022-07-23T03:42:32;8.32;;;7.53;;
41952;SDS011;47381;28.206;112.926;2022-07-23T03:45:00;8.55;;;7.20;;
41952;SDS011;47381;28.206;112.926;2022-07-23T03:47:30;7.32;;;6.60;;
41952;SDS011;47381;28.206;112.926;2022-07-23T03:49:57;7.65;;;7.05;;
41952;SDS011;47381;28.206;112.926;2022-07-23T03:52:24;8.23;;;7.53;;
41952;SDS011;47381;28.206;112.926;2022-07-23T03:54:51;8.50;;;7.70;;
41952;SDS011;47381;28.206;112.926;2022-07-23T03:57:18;7.82;;;6.90;;
41952;SDS011;47381;28.206;112.926;2022-07-23T04:00:06;9.23;;;7.85;;
41952;SDS011;47381;28.206;112.926;2022-07-23T04:02:55;8.50;;;7.22;;
41952;SDS011;47381;28.206;112.926;2022-07-23T04:05:22;8.73;;;7.15;;
41952;SDS011;47381;28.206;112.926;2022-07-23T04:07:51;8.27;;;7.53;;
41952;SDS011;47381;28.206;112.926;2022-07-23T04:10:19;8.32;;;7.07;;
41952;SDS011;47381;28.206;112.926;2022-07-23T04:12:46;8.77;;;7.57;;
41952;SDS011;47381;28.206;112.926;2022-07-23T04:15:14;8.50;;;7.57;;
41952;SDS011;47381;28.206;112.926;2022-07-23T04:17:41;8.60;;;7.75;;
41952;SDS011;47381;28.206;112.926;2022-07-23T04:20:09;9.80;;;7.75;;
41952;SDS011;47381;28.206;112.926;2022-07-23T04:22:56;8.93;;;7.40;;
41952;SDS011;47381;28.206;112.926;2022-07-23T04:25:24;8.30;;;7.50;;
41952;SDS011;47381;28.206;112.926;2022-07-23T04:27:51;9.82;;;8.23;;
41952;SDS011;47381;28.206;112.926;2022-07-23T04:30:18;11.10;;;8.20;;
41952;SDS011;47381;28.206;112.926;2022-07-23T04:32:50;11.48;;;8.07;;
41952;SDS011;47381;28.206;112.926;2022-07-23T04:35:17;11.15;;;8.07;;
41952;SDS011;47381;28.206;112.926;2022-07-23T04:37:44;8.88;;;7.97;;
41952;SDS011;47381;28.206;112.926;2022-07-23T04:40:12;9.98;;;8.13;;
41952;SDS011;47381;28.206;112.926;2022-07-23T04:42:39;13.40;;;8.45;;
41952;SDS011;47381;28.206;112.926;2022-07-23T04:45:06;12.07;;;8.55;;
41952;SDS011;47381;28.206;112.926;2022-07-23T04:47:34;11.35;;;8.50;;
41952;SDS011;47381;28.206;112.926;2022-07-23T04:50:01;12.45;;;8.48;;
41952;SDS011;47381;28.206;112.926;2022-07-23T04:52:29;9.52;;;8.52;;
41952;SDS011;47381;28.206;112.926;2022-07-23T04:54:56;9.90;;;8.45;;
41952;SDS011;47381;28.206;112.926;2022-07-23T04:57:23;10.27;;;7.95;;
41952;SDS011;47381;28.206;112.926;2022-07-23T04:59:50;9.75;;;8.68;;
41952;SDS011;47381;28.206;112.926;2022-07-23T05:02:17;10.82;;;7.80;;
41952;SDS011;47381;28.206;112.926;2022-07-23T05:04:44;11.63;;;8.73;;
41952;SDS011;47381;28.206;112.926;2022-07-23T05:07:12;11.20;;;8.68;;
41952;SDS011;47381;28.206;112.926;2022-07-23T05:09:39;10.52;;;8.38;;
41952;SDS011;47381;28.206;112.926;2022-07-23T05:12:26;11.20;;;8.88;;
41952;SDS011;47381;28.206;112.926;2022-07-23T05:14:56;11.05;;;8.50;;
41952;SDS011;47381;28.206;112.926;2022-07-23T05:17:26;9.57;;;8.57;;
41952;SDS011;47381;28.206;112.926;2022-07-23T05:19:55;11.55;;;8.45;;
41952;SDS011;47381;28.206;112.926;2022-07-23T05:22:23;9.77;;;8.20;;
41952;SDS011;47381;28.206;112.926;2022-07-23T05:24:50;9.05;;;8.13;;
41952;SDS011;47381;28.206;112.926;2022-07-23T05:27:17;10.10;;;7.90;;
41952;SDS011;47381;28.206;112.926;2022-07-23T05:29:46;9.57;;;8.25;;
41952;SDS011;47381;28.206;112.926;2022-07-23T05:32:14;10.95;;;8.48;;
41952;SDS011;47381;28.206;112.926;2022-07-23T05:34:42;11.23;;;8.98;;
41952;SDS011;47381;28.206;112.926;2022-07-23T05:37:10;8.80;;;7.90;;
41952;SDS011;47381;28.206;112.926;2022-07-23T05:39:37;9.48;;;7.43;;
41952;SDS011;47381;28.206;112.926;2022-07-23T05:42:05;9.73;;;8.50;;
41952;SDS011;47381;28.206;112.926;2022-07-23T05:44:33;11.02;;;7.88;;
41952;SDS011;47381;28.206;112.926;2022-07-23T05:47:03;11.10;;;8.80;;
41952;SDS011;47381;28.206;112.926;2022-07-23T05:49:30;8.88;;;7.80;;
41952;SDS011;47381;28.206;112.926;2022-07-23T05:51:57;10.18;;;8.52;;
41952;SDS011;47381;28.206;112.926;2022-07-23T05:54:34;9.10;;;8.20;;
41952;SDS011;47381;28.206;112.926;2022-07-23T05:57:03;9.13;;;7.22;;
41952;SDS011;47381;28.206;112.926;2022-07-23T05:59:31;11.50;;;9.15;;
41952;SDS011;47381;28.206;112.926;2022-07-23T06:02:01;10.73;;;7.75;;
41952;SDS011;47381;28.206;112.926;2022-07-23T06:04:29;11.25;;;8.48;;
41952;SDS011;47381;28.206;112.926;2022-07-23T06:07:17;10.88;;;8.43;;
41952;SDS011;47381;28.206;112.926;2022-07-23T06:09:44;9.02;;;8.23;;
41952;SDS011;47381;28.206;112.926;2022-07-23T06:12:12;8.73;;;7.90;;
41952;SDS011;47381;28.206;112.926;2022-07-23T06:14:39;9.35;;;8.13;;
41952;SDS011;47381;28.206;112.926;2022-07-23T06:17:07;9.43;;;7.88;;
41952;SDS011;47381;28.206;112.926;2022-07-23T06:19:34;8.73;;;7.90;;
41952;SDS011;47381;28.206;112.926;2022-07-23T06:22:01;10.13;;;7.63;;
41952;SDS011;47381;28.206;112.926;2022-07-23T06:24:28;10.05;;;7.78;;
41952;SDS011;47381;28.206;112.926;2022-07-23T06:26:58;8.20;;;7.22;;
41952;SDS011;47381;28.206;112.926;2022-07-23T06:29:31;7.75;;;6.95;;
41952;SDS011;47381;28.206;112.926;2022-07-23T06:31:58;8.75;;;7.60;;
41952;SDS011;47381;28.206;112.926;2022-07-23T06:34:47;8.65;;;6.93;;
41952;SDS011;47381;28.206;112.926;2022-07-23T06:37:14;10.07;;;7.13;;
41952;SDS011;47381;28.206;112.926;2022-07-23T06:39:41;8.45;;;7.57;;
41952;SDS011;47381;28.206;112.926;2022-07-23T06:42:10;8.63;;;7.15;;
41952;SDS011;47381;28.206;112.926;2022-07-23T06:44:37;8.73;;;7.03;;
41952;SDS011;47381;28.206;112.926;2022-07-23T06:47:05;7.65;;;6.55;;
41952;SDS011;47381;28.206;112.926;2022-07-23T06:49:32;10.38;;;7.65;;
41952;SDS011;47381;28.206;112.926;2022-07-23T06:54:50;7.55;;;6.13;;
41952;SDS011;47381;28.206;112.926;2022-07-23T06:57:17;9.48;;;7.25;;
41952;SDS011;47381;28.206;112.926;2022-07-23T06:59:44;10.02;;;7.95;;
41952;SDS011;47381;28.206;112.926;2022-07-23T07:02:11;7.97;;;6.70;;
41952;SDS011;47381;28.206;112.926;2022-07-23T07:04:39;7.25;;;6.50;;
41952;SDS011;47381;28.206;112.926;2022-07-23T07:07:06;8.05;;;6.72;;
41952;SDS011;47381;28.206;112.926;2022-07-23T07:09:33;7.15;;;6.45;;
41952;SDS011;47381;28.206;112.926;2022-07-23T07:12:01;7.90;;;7.20;;
41952;SDS011;47381;28.206;112.926;2022-07-23T07:14:28;8.82;;;7.40;;
41952;SDS011;47381;28.206;112.926;2022-07-23T07:17:15;7.72;;;6.93;;
41952;SDS011;47381;28.206;112.926;2022-07-23T07:19:43;7.18;;;6.53;;
41952;SDS011;47381;28.206;112.926;2022-07-23T07:22:10;7.13;;;6.43;;
41952;SDS011;47381;28.206;112.926;2022-07-23T07:24:39;7.90;;;7.15;;
41952;SDS011;47381;28.206;112.926;2022-07-23T07:27:28;7.32;;;6.50;;
41952;SDS011;47381;28.206;112.926;2022-07-23T07:29:55;7.72;;;6.35;;
41952;SDS011;47381;28.206;112.926;2022-07-23T07:32:22;7.57;;;6.82;;
41952;SDS011;47381;28.206;112.926;2022-07-23T07:34:51;7.05;;;6.45;;
41952;SDS011;47381;28.206;112.926;2022-07-23T07:37:18;8.05;;;7.35;;
41952;SDS011;47381;28.206;112.926;2022-07-23T07:39:51;7.57;;;6.87;;
41952;SDS011;47381;28.206;112.926;2022-07-23T07:42:20;7.63;;;6.93;;
41952;SDS011;47381;28.206;112.926;2022-07-23T07:44:47;7.47;;;6.75;;
41952;SDS011;47381;28.206;112.926;2022-07-23T07:47:18;7.43;;;6.65;;
41952;SDS011;47381;28.206;112.926;2022-07-23T07:49:49;7.43;;;6.72;;
41952;SDS011;47381;28.206;112.926;2022-07-23T07:52:16;7.95;;;6.68;;
41952;SDS011;47381;28.206;112.926;2022-07-23T07:54:43;7.82;;;7.00;;
41952;SDS011;47381;28.206;112.926;2022-07-23T07:57:10;7.65;;;6.88;;
41952;SDS011;47381;28.206;112.926;2022-07-23T07:59:41;7.43;;;6.72;;
41952;SDS011;47381;28.206;112.926;2022-07-23T08:02:08;7.90;;;6.80;;
41952;SDS011;47381;28.206;112.926;2022-07-23T08:04:36;7.45;;;6.78;;
41952;SDS011;47381;28.206;112.926;2022-07-23T08:07:06;8.82;;;7.07;;
41952;SDS011;47381;28.206;112.926;2022-07-23T08:09:33;6.85;;;6.28;;
41952;SDS011;47381;28.206;112.926;2022-07-23T08:12:00;7.32;;;6.25;;
41952;SDS011;47381;28.206;112.926;2022-07-23T08:14:28;7.55;;;6.85;;
41952;SDS011;47381;28.206;112.926;2022-07-23T08:17:15;6.53;;;5.93;;
41952;SDS011;47381;28.206;112.926;2022-07-23T08:19:42;6.20;;;5.70;;
41952;SDS011;47381;28.206;112.926;2022-07-23T08:22:10;6.63;;;5.85;;
41952;SDS011;47381;28.206;112.926;2022-07-23T08:24:38;6.60;;;6.00;;
41952;SDS011;47381;28.206;112.926;2022-07-23T08:27:05;6.45;;;5.85;;
41952;SDS011;47381;28.206;112.926;2022-07-23T08:29:32;6.50;;;5.82;;
41952;SDS011;47381;28.206;112.926;2022-07-23T08:32:02;6.50;;;5.90;;
41952;SDS011;47381;28.206;112.926;2022-07-23T08:34:30;6.63;;;5.90;;
41952;SDS011;47381;28.206;112.926;2022-07-23T08:36:57;5.93;;;5.30;;
41952;SDS011;47381;28.206;112.926;2022-07-23T08:39:29;6.05;;;5.45;;
41952;SDS011;47381;28.206;112.926;2022-07-23T08:41:57;5.88;;;5.25;;
41952;SDS011;47381;28.206;112.926;2022-07-23T08:44:27;5.97;;;5.35;;
41952;SDS011;47381;28.206;112.926;2022-07-23T08:46:55;6.03;;;5.45;;
41952;SDS011;47381;28.206;112.926;2022-07-23T08:49:25;6.07;;;5.47;;
41952;SDS011;47381;28.206;112.926;2022-07-23T08:51:55;6.55;;;5.45;;
41952;SDS011;47381;28.206;112.926;2022-07-23T08:54:22;6.03;;;5.25;;
41952;SDS011;47381;28.206;112.926;2022-07-23T08:56:49;5.80;;;5.18;;
41952;SDS011;47381;28.206;112.926;2022-07-23T08:59:36;6.13;;;5.32;;
41952;SDS011;47381;28.206;112.926;2022-07-23T09:02:03;6.05;;;5.45;;
41952;SDS011;47381;28.206;112.926;2022-07-23T09:04:31;5.20;;;4.70;;
41952;SDS011;47381;28.206;112.926;2022-07-23T09:06:58;5.65;;;5.15;;
41952;SDS011;47381;28.206;112.926;2022-07-23T09:09:27;5.88;;;5.28;;
41952;SDS011;47381;28.206;112.926;2022-07-23T09:12:07;6.03;;;5.43;;
41952;SDS011;47381;28.206;112.926;2022-07-23T09:14:44;5.10;;;4.50;;
41952;SDS011;47381;28.206;112.926;2022-07-23T09:17:16;5.72;;;5.18;;
41952;SDS011;47381;28.206;112.926;2022-07-23T09:19:46;5.88;;;5.18;;
41952;SDS011;47381;28.206;112.926;2022-07-23T09:22:20;5.85;;;4.88;;
41952;SDS011;47381;28.206;112.926;2022-07-23T09:30:22;5.30;;;4.63;;
41952;SDS011;47381;28.206;112.926;2022-07-23T09:35:52;5.35;;;4.72;;
41952;SDS011;47381;28.206;112.926;2022-07-23T09:38:23;7.65;;;5.47;;
41952;SDS011;47381;28.206;112.926;2022-07-23T09:41:09;6.72;;;5.60;;
41952;SDS011;47381;28.206;112.926;2022-07-23T09:43:37;8.13;;;5.82;;
41952;SDS011;47381;28.206;112.926;2022-07-23T09:46:23;9.18;;;5.88;;
41952;SDS011;47381;28.206;112.926;2022-07-23T09:48:54;9.73;;;6.00;;
41952;SDS011;47381;28.206;112.926;2022-07-23T09:51:23;8.35;;;6.00;;
41952;SDS011;47381;28.206;112.926;2022-07-23T09:54:02;8.30;;;6.15;;
41952;SDS011;47381;28.206;112.926;2022-07-23T09:56:29;6.82;;;6.07;;
41952;SDS011;47381;28.206;112.926;2022-07-23T09:58:59;8.27;;;5.93;;
41952;SDS011;47381;28.206;112.926;2022-07-23T10:01:37;9.43;;;6.05;;
41952;SDS011;47381;28.206;112.926;2022-07-23T10:04:05;7.22;;;6.28;;
41952;SDS011;47381;28.206;112.926;2022-07-23T10:06:33;8.02;;;6.32;;
41952;SDS011;47381;28.206;112.926;2022-07-23T10:09:00;9.35;;;6.90;;
41952;SDS011;47381;28.206;112.926;2022-07-23T10:11:28;7.90;;;6.15;;
41952;SDS011;47381;28.206;112.926;2022-07-23T10:13:57;8.18;;;6.18;;
41952;SDS011;47381;28.206;112.926;2022-07-23T10:16:26;8.15;;;6.70;;
41952;SDS011;47381;28.206;112.926;2022-07-23T10:18:54;8.40;;;6.82;;
41952;SDS011;47381;28.206;112.926;2022-07-23T10:21:24;7.03;;;6.32;;
41952;SDS011;47381;28.206;112.926;2022-07-23T10:37:40;10.00;;;7.05;;
41952;SDS011;47381;28.206;112.926;2022-07-23T10:40:17;8.07;;;7.22;;
41952;SDS011;47381;28.206;112.926;2022-07-23T10:42:47;7.97;;;6.28;;
41952;SDS011;47381;28.206;112.926;2022-07-23T10:45:30;9.50;;;7.50;;
41952;SDS011;47381;28.206;112.926;2022-07-23T10:48:14;8.90;;;6.13;;
41952;SDS011;47381;28.206;112.926;2022-07-23T10:50:42;6.88;;;5.95;;
41952;SDS011;47381;28.206;112.926;2022-07-23T10:55:50;9.18;;;6.75;;
41952;SDS011;47381;28.206;112.926;2022-07-23T10:58:19;9.30;;;6.82;;
41952;SDS011;47381;28.206;112.926;2022-07-23T11:04:03;9.35;;;6.65;;
41952;SDS011;47381;28.206;112.926;2022-07-23T11:09:29;9.50;;;6.20;;
41952;SDS011;47381;28.206;112.926;2022-07-23T11:17:33;11.20;;;7.43;;
41952;SDS011;47381;28.206;112.926;2022-07-23T11:25:14;11.05;;;7.72;;
41952;SDS011;47381;28.206;112.926;2022-07-23T11:28:16;10.95;;;7.90;;
41952;SDS011;47381;28.206;112.926;2022-07-23T11:30:46;11.80;;;8.40;;
41952;SDS011;47381;28.206;112.926;2022-07-23T11:35:43;11.45;;;8.25;;
41952;SDS011;47381;28.206;112.926;2022-07-23T11:38:16;11.55;;;7.30;;
41952;SDS011;47381;28.206;112.926;2022-07-23T11:40:45;9.40;;;7.43;;
41952;SDS011;47381;28.206;112.926;2022-07-23T11:43:17;10.10;;;7.38;;
41952;SDS011;47381;28.206;112.926;2022-07-23T11:45:48;11.25;;;7.63;;
41952;SDS011;47381;28.206;112.926;2022-07-23T11:51:07;11.85;;;7.65;;
41952;SDS011;47381;28.206;112.926;2022-07-23T11:53:34;11.10;;;7.68;;
41952;SDS011;47381;28.206;112.926;2022-07-23T11:58:32;10.85;;;7.68;;
41952;SDS011;47381;28.206;112.926;2022-07-23T12:01:00;11.13;;;7.70;;
41952;SDS011;47381;28.206;112.926;2022-07-23T12:03:30;10.80;;;8.80;;
41952;SDS011;47381;28.206;112.926;2022-07-23T12:05:57;10.93;;;8.13;;
41952;SDS011;47381;28.206;112.926;2022-07-23T12:08:26;11.88;;;8.38;;
41952;SDS011;47381;28.206;112.926;2022-07-23T12:10:53;11.27;;;8.07;;
41952;SDS011;47381;28.206;112.926;2022-07-23T12:13:20;9.85;;;7.32;;
41952;SDS011;47381;28.206;112.926;2022-07-23T12:15:50;11.20;;;7.82;;
41952;SDS011;47381;28.206;112.926;2022-07-23T12:18:22;10.43;;;7.95;;
41952;SDS011;47381;28.206;112.926;2022-07-23T12:20:52;9.95;;;8.10;;
41952;SDS011;47381;28.206;112.926;2022-07-23T12:23:22;9.77;;;7.78;;
41952;SDS011;47381;28.206;112.926;2022-07-23T12:25:53;9.95;;;7.53;;
41952;SDS011;47381;28.206;112.926;2022-07-23T12:28:29;10.95;;;8.30;;
41952;SDS011;47381;28.206;112.926;2022-07-23T12:31:03;9.93;;;7.45;;
41952;SDS011;47381;28.206;112.926;2022-07-23T12:33:32;11.23;;;7.78;;
41952;SDS011;47381;28.206;112.926;2022-07-23T12:36:01;9.65;;;7.10;;
41952;SDS011;47381;28.206;112.926;2022-07-23T12:41:53;11.35;;;8.13;;
41952;SDS011;47381;28.206;112.926;2022-07-23T12:44:21;11.50;;;7.65;;
41952;SDS011;47381;28.206;112.926;2022-07-23T12:46:50;9.80;;;6.95;;
41952;SDS011;47381;28.206;112.926;2022-07-23T12:49:26;9.32;;;6.93;;
41952;SDS011;47381;28.206;112.926;2022-07-23T12:51:54;9.70;;;7.05;;
41952;SDS011;47381;28.206;112.926;2022-07-23T12:54:26;10.80;;;7.47;;
41952;SDS011;47381;28.206;112.926;2022-07-23T12:56:54;8.77;;;7.60;;
41952;SDS011;47381;28.206;112.926;2022-07-23T12:59:22;11.73;;;7.50;;
41952;SDS011;47381;28.206;112.926;2022-07-23T13:01:56;8.32;;;6.63;;
41952;SDS011;47381;28.206;112.926;2022-07-23T13:04:24;9.13;;;7.00;;
41952;SDS011;47381;28.206;112.926;2022-07-23T13:06:53;10.80;;;7.60;;
41952;SDS011;47381;28.206;112.926;2022-07-23T13:09:28;9.05;;;7.15;;
41952;SDS011;47381;28.206;112.926;2022-07-23T13:11:57;7.53;;;6.63;;
41952;SDS011;47381;28.206;112.926;2022-07-23T13:14:25;8.63;;;6.68;;
41952;SDS011;47381;28.206;112.926;2022-07-23T13:16:54;9.18;;;7.10;;
41952;SDS011;47381;28.206;112.926;2022-07-23T13:19:21;9.27;;;6.68;;
41952;SDS011;47381;28.206;112.926;2022-07-23T13:21:49;8.18;;;6.35;;
41952;SDS011;47381;28.206;112.926;2022-07-23T13:24:16;7.63;;;6.65;;
41952;SDS011;47381;28.206;112.926;2022-07-23T13:26:44;8.18;;;6.85;;
41952;SDS011;47381;28.206;112.926;2022-07-23T13:29:12;8.43;;;5.95;;
41952;SDS011;47381;28.206;112.926;2022-07-23T13:31:39;10.18;;;6.97;;
41952;SDS011;47381;28.206;112.926;2022-07-23T13:34:27;8.20;;;5.97;;
41952;SDS011;47381;28.206;112.926;2022-07-23T13:36:54;10.38;;;6.20;;
41952;SDS011;47381;28.206;112.926;2022-07-23T13:39:21;10.13;;;6.50;;
41952;SDS011;47381;28.206;112.926;2022-07-23T13:41:48;9.20;;;7.35;;
41952;SDS011;47381;28.206;112.926;2022-07-23T13:44:17;8.18;;;6.68;;
41952;SDS011;47381;28.206;112.926;2022-07-23T13:46:48;8.52;;;6.22;;
41952;SDS011;47381;28.206;112.926;2022-07-23T13:49:35;8.23;;;6.72;;
41952;SDS011;47381;28.206;112.926;2022-07-23T13:52:03;7.22;;;6.43;;
41952;SDS011;47381;28.206;112.926;2022-07-23T13:54:33;6.80;;;6.07;;
41952;SDS011;47381;28.206;112.926;2022-07-23T13:57:01;7.50;;;6.60;;
41952;SDS011;47381;28.206;112.926;2022-07-23T13:59:29;8.77;;;6.20;;
41952;SDS011;47381;28.206;112.926;2022-07-23T14:02:18;8.93;;;6.50;;
41952;SDS011;47381;28.206;112.926;2022-07-23T14:04:46;9.07;;;6.78;;
41952;SDS011;47381;28.206;112.926;2022-07-23T14:07:16;7.20;;;6.50;;
41952;SDS011;47381;28.206;112.926;2022-07-23T14:10:06;7.70;;;6.50;;
41952;SDS011;47381;28.206;112.926;2022-07-23T14:12:33;9.23;;;7.38;;
41952;SDS011;47381;28.206;112.926;2022-07-23T14:15:04;7.22;;;6.32;;
41952;SDS011;47381;28.206;112.926;2022-07-23T14:17:35;8.02;;;6.65;;
41952;SDS011;47381;28.206;112.926;2022-07-23T14:20:09;7.47;;;6.35;;
41952;SDS011;47381;28.206;112.926;2022-07-23T14:22:38;8.23;;;6.70;;
41952;SDS011;47381;28.206;112.926;2022-07-23T14:25:09;9.02;;;6.97;;
41952;SDS011;47381;28.206;112.926;2022-07-23T14:27:36;8.57;;;7.00;;
41952;SDS011;47381;28.206;112.926;2022-07-23T14:30:05;9.52;;;6.63;;
41952;SDS011;47381;28.206;112.926;2022-07-23T14:32:33;8.80;;;7.10;;
41952;SDS011;47381;28.206;112.926;2022-07-23T14:35:02;8.40;;;7.03;;
41952;SDS011;47381;28.206;112.926;2022-07-23T14:37:32;7.32;;;6.63;;
41952;SDS011;47381;28.206;112.926;2022-07-23T14:40:03;7.60;;;6.45;;
41952;SDS011;47381;28.206;112.926;2022-07-23T14:42:31;8.95;;;6.82;;
41952;SDS011;47381;28.206;112.926;2022-07-23T14:44:58;8.50;;;6.75;;
41952;SDS011;47381;28.206;112.926;2022-07-23T14:47:34;7.88;;;6.72;;
41952;SDS011;47381;28.206;112.926;2022-07-23T14:50:02;8.25;;;7.07;;
41952;SDS011;47381;28.206;112.926;2022-07-23T14:52:32;7.82;;;7.07;;
41952;SDS011;47381;28.206;112.926;2022-07-23T14:54:59;8.30;;;6.70;;
41952;SDS011;47381;28.206;112.926;2022-07-23T14:57:46;7.00;;;6.03;;
41952;SDS011;47381;28.206;112.926;2022-07-23T15:00:17;8.02;;;6.65;;
41952;SDS011;47381;28.206;112.926;2022-07-23T15:02:45;7.80;;;7.00;;
41952;SDS011;47381;28.206;112.926;2022-07-23T15:05:13;7.28;;;6.57;;
41952;SDS011;47381;28.206;112.926;2022-07-23T15:07:40;7.00;;;6.30;;
41952;SDS011;47381;28.206;112.926;2022-07-23T15:10:08;7.72;;;6.57;;
41952;SDS011;47381;28.206;112.926;2022-07-23T15:12:42;8.32;;;6.63;;
41952;SDS011;47381;28.206;112.926;2022-07-23T15:15:13;7.53;;;6.72;;
41952;SDS011;47381;28.206;112.926;2022-07-23T15:17:41;10.65;;;6.18;;
41952;SDS011;47381;28.206;112.926;2022-07-23T15:20:11;7.47;;;6.75;;
41952;SDS011;47381;28.206;112.926;2022-07-23T15:22:38;7.68;;;6.93;;
41952;SDS011;47381;28.206;112.926;2022-07-23T15:25:06;8.38;;;6.85;;
41952;SDS011;47381;28.206;112.926;2022-07-23T15:27:33;7.07;;;6.45;;
41952;SDS011;47381;28.206;112.926;2022-07-23T15:30:02;7.47;;;6.70;;